Aviation Digital Data Service (ADDS)

Output produced by METARs form (0310 UTC 30 August 2016)
found at http://aviationweather.gov/adds/metars/
 
KLCH 292337Z 3000/3024 10010KT P6SM VCTS SCT025CB BKN050 
     FM300100 06004KT P6SM FEW050 BKN200